Home   Weather   USA   Fremont   Past weeks
Flag for USA

Past Weather in Fremont, California, USA — Yesterday and Last 2 Weeks

Currently: 46 °F. Sunny. (Weather station: Moffett Field, USA). See more current weather

Past Weather in Fremont — Graph

°F

Fremont Temperature Yesterday

Maximum temperature yesterday: 55 °F (at 10:55 am)
Minimum temperature yesterday: 43 °F (at 11:25 pm)
Average temperature yesterday: 50 °F

High & Low Weather Summary for the Past Weeks

 TemperatureHumidityPressure
High70 °F (Nov 24, 2:35 pm)100% (Dec 1, 1:35 pm)30.32 "Hg (Dec 1, 1:35 pm)
Low36 °F (Nov 30, 3:55 am)29% (Nov 22, 2:55 pm)29.82 "Hg (Dec 1, 7:40 am)
Average50 °F74%30.08 "Hg
* Reported Nov 22 8:55 am — Dec 7 8:15 am, Fremont. Weather by CustomWeather, © 2022

Note: Actual official high and low records may vary slightly from our data, if they occured in-between our weather recording intervals... More about our weather records

Fremont Weather History for the Previous 24 Hours

Scroll right to see more
 ConditionsComfort  
Time TempWeatherWind HumidityBarometerVisibility
8:15 am
Wed, Dec 7
43 °FSunny.No wind93%30.21 "Hg10 mi
7:55 am41 °FSunny.No wind93%30.21 "Hg10 mi
7:35 am41 °FSunny.No wind93%30.20 "Hg10 mi
7:15 am39 °FSunny.No wind100%30.19 "Hg10 mi
6:55 am39 °FClear.No wind100%30.19 "Hg10 mi
6:35 am39 °FClear.3 mph93%30.19 "Hg10 mi
5:55 am39 °FClear.No wind100%30.18 "Hg10 mi
5:15 am39 °FClear.No wind100%30.17 "Hg10 mi
4:55 am39 °FClear.No wind100%30.16 "Hg10 mi
4:15 am41 °FClear.No wind93%30.16 "Hg10 mi
3:55 am41 °FClear.No wind93%30.15 "Hg10 mi
3:10 am41 °FClear.3 mph93%30.15 "Hg10 mi
2:50 am41 °FClear.No wind93%30.15 "Hg10 mi
2:10 am41 °FClear.No wind100%30.14 "Hg10 mi
1:45 am43 °FClear.No wind93%30.14 "Hg10 mi
1:30 am43 °FClear.No wind93%30.14 "Hg10 mi
1:10 am43 °FClear.No wind93%30.14 "Hg10 mi
12:50 am43 °FClear.No wind93%30.13 "Hg10 mi
12:30 am43 °FClear.No wind93%30.14 "Hg10 mi
12:10 am43 °FClear.No wind93%30.14 "Hg10 mi
11:50 pm
Tue, Dec 6
43 °FClear.No wind93%30.13 "Hg10 mi
11:25 pm43 °FClear.No wind93%30.13 "Hg10 mi
11:10 pm45 °FPassing clouds.No wind93%30.13 "Hg10 mi
10:50 pm45 °FPartly cloudy.No wind93%30.13 "Hg10 mi
10:25 pm46 °FPassing clouds.No wind87%30.12 "Hg10 mi
10:15 pm46 °FPassing clouds.No wind87%30.12 "Hg10 mi
9:50 pm46 °FPassing clouds.No wind87%30.12 "Hg10 mi
9:05 pm46 °FClear.No wind87%30.11 "Hg10 mi
8:15 pm50 °FClear.3 mph82%30.10 "Hg10 mi
7:40 pm50 °FClear.5 mph76%30.09 "Hg10 mi
7:35 pm50 °FClear.5 mph76%30.09 "Hg10 mi
7:15 pm50 °FClear.5 mph82%30.09 "Hg10 mi
6:50 pm50 °FClear.3 mph82%30.08 "Hg10 mi
6:35 pm50 °FClear.No wind82%30.08 "Hg10 mi
6:15 pm50 °FClear.3 mph82%30.07 "Hg10 mi
5:50 pm50 °FClear.6 mph82%30.07 "Hg10 mi
5:20 pm52 °FOvercast.7 mph77%30.07 "Hg10 mi
5:10 pm52 °FMostly cloudy.5 mph77%30.07 "Hg10 mi
4:55 pm54 °FMostly cloudy.8 mph72%30.06 "Hg10 mi
3:35 pm54 °FCloudy.8 mph72%30.05 "Hg10 mi
3:15 pm54 °FMostly cloudy.6 mph77%30.05 "Hg10 mi
2:55 pm54 °FOvercast.7 mph77%30.05 "Hg10 mi
2:35 pm54 °FOvercast.8 mph72%30.04 "Hg10 mi
1:55 pm54 °FPartly sunny.8 mph72%30.04 "Hg10 mi
1:35 pm55 °FMore clouds than sun.5 mph67%30.04 "Hg10 mi
1:15 pm55 °FMostly cloudy.6 mph72%30.04 "Hg10 mi
12:55 pm54 °FLight rain. Broken clouds.7 mph77%30.05 "Hg6 mi
12:35 pm54 °FCloudy.5 mph72%30.05 "Hg9 mi
12:15 pm54 °FCloudy.6 mph72%30.05 "Hg10 mi
11:55 am54 °FBroken clouds.5 mph72%30.06 "Hg10 mi
11:35 am54 °FScattered clouds.5 mph77%30.06 "Hg10 mi
11:15 am55 °FSunny.5 mph72%30.06 "Hg10 mi
10:55 am55 °FScattered clouds.No wind67%30.07 "Hg10 mi
10:35 am54 °FOvercast.No wind72%30.07 "Hg10 mi
9:55 am50 °FMostly cloudy.6 mph82%30.06 "Hg10 mi
9:35 am50 °FMostly cloudy.3 mph82%30.06 "Hg10 mi
9:10 am48 °FPartly sunny.6 mph87%30.06 "Hg10 mi
Weather by CustomWeather, © 2022

See weather overview